createdAt,value
2023-04-16T00:00:53.105Z,96.3675
2023-04-16T00:01:53.850Z,96.3114
2023-04-16T00:02:54.657Z,96.1852
2023-04-16T00:03:55.935Z,96.1395
2023-04-16T00:04:56.746Z,96.1255
2023-04-16T00:05:57.358Z,96.1543
2023-04-16T00:06:58.051Z,96.1743
2023-04-16T00:07:58.662Z,96.1776
2023-04-16T00:08:59.323Z,96.2200
2023-04-16T00:10:00.008Z,96.1781
2023-04-16T00:11:00.673Z,96.1764
2023-04-16T00:12:01.332Z,96.1520
2023-04-16T00:13:02.053Z,96.1770
2023-04-16T00:14:02.663Z,96.2062
2023-04-16T00:15:03.332Z,96.2369
2023-04-16T00:16:03.994Z,96.2970
2023-04-16T00:17:04.736Z,96.3138
2023-04-16T00:18:05.459Z,96.2626
2023-04-16T00:19:06.133Z,96.2272
2023-04-16T00:20:06.775Z,96.1536
2023-04-16T00:21:07.441Z,95.8619
2023-04-16T00:22:08.117Z,95.6737
2023-04-16T00:23:08.814Z,95.6072
2023-04-16T00:24:09.451Z,95.6855
2023-04-16T00:25:10.100Z,95.7105
2023-04-16T00:26:10.739Z,95.6904
2023-04-16T00:27:11.722Z,95.6410
2023-04-16T00:28:12.337Z,95.6086
2023-04-16T00:29:13.003Z,95.6321
2023-04-16T00:30:13.623Z,95.7019
2023-04-16T00:31:14.568Z,95.7319
2023-04-16T00:32:15.248Z,95.7634
2023-04-16T00:33:15.900Z,95.8229
2023-04-16T00:34:18.408Z,95.8808
2023-04-16T00:35:19.066Z,95.8912
2023-04-16T00:36:19.943Z,95.9900
2023-04-16T00:37:20.570Z,96.0823
2023-04-16T00:38:21.230Z,96.1376
2023-04-16T00:39:21.999Z,96.1743
2023-04-16T00:40:22.683Z,96.1141
2023-04-16T00:41:23.298Z,96.0399
2023-04-16T00:42:23.994Z,95.9273
2023-04-16T00:43:24.636Z,95.9836
2023-04-16T00:44:25.297Z,95.9937
2023-04-16T00:45:25.956Z,95.9468
2023-04-16T00:46:26.680Z,95.9936
2023-04-16T00:47:27.310Z,95.9908
2023-04-16T00:48:28.017Z,95.9548
2023-04-16T00:49:28.646Z,95.9856
2023-04-16T00:50:29.314Z,96.0773
2023-04-16T00:51:29.997Z,96.1238
2023-04-16T00:52:30.621Z,96.0710
2023-04-16T00:53:31.295Z,95.9916
2023-04-16T00:54:31.959Z,95.8875
2023-04-16T00:55:32.633Z,95.7252
2023-04-16T00:56:33.278Z,95.8034
2023-04-16T00:57:33.981Z,95.8809
2023-04-16T00:58:34.643Z,95.9312
2023-04-16T00:59:35.288Z,95.9505
2023-04-16T01:00:35.933Z,95.8372
2023-04-16T01:01:36.616Z,95.8563
2023-04-16T01:02:37.336Z,95.9621
2023-04-16T01:03:38.179Z,96.0009
2023-04-16T01:04:38.877Z,96.0423
2023-04-16T01:05:39.544Z,96.1000
2023-04-16T01:06:40.260Z,96.0346
2023-04-16T01:07:40.904Z,96.0833
2023-04-16T01:08:41.534Z,96.1033
2023-04-16T01:09:42.208Z,96.1416
2023-04-16T01:10:42.872Z,96.1767
2023-04-16T01:11:43.493Z,96.2610
2023-04-16T01:12:44.130Z,96.2322
2023-04-16T01:13:44.778Z,96.2286
2023-04-16T01:14:45.878Z,96.3044
2023-04-16T01:15:46.530Z,96.2737
2023-04-16T01:16:47.184Z,96.1947
2023-04-16T01:17:47.856Z,96.1662
2023-04-16T01:18:48.483Z,96.1709
2023-04-16T01:19:49.173Z,96.1632
2023-04-16T01:20:49.870Z,96.1263
2023-04-16T01:21:50.550Z,95.9579
2023-04-16T01:22:51.254Z,95.7730
2023-04-16T01:23:51.928Z,95.5867
2023-04-16T01:24:52.666Z,95.5164
2023-04-16T01:25:53.365Z,95.5816
2023-04-16T01:26:54.047Z,95.7077
2023-04-16T01:27:54.728Z,95.8267
2023-04-16T01:28:55.400Z,95.8403
2023-04-16T01:29:56.092Z,95.9213
2023-04-16T01:30:56.799Z,95.9810
2023-04-16T01:31:57.468Z,95.9535
2023-04-16T01:32:58.200Z,96.0107
2023-04-16T01:33:59.118Z,96.0303
2023-04-16T01:34:59.818Z,96.0981
2023-04-16T01:36:00.587Z,96.2176
2023-04-16T01:37:01.419Z,96.2654
2023-04-16T01:38:02.091Z,96.1622
2023-04-16T01:39:02.764Z,95.8784
2023-04-16T01:40:03.453Z,95.9286
2023-04-16T01:41:04.163Z,96.0090
2023-04-16T01:42:04.897Z,96.0278
2023-04-16T01:43:05.603Z,95.9843
2023-04-16T01:44:06.297Z,96.0888
2023-04-16T01:45:06.979Z,96.1562
2023-04-16T01:46:07.682Z,96.2481
2023-04-16T01:47:08.362Z,96.3246
2023-04-16T01:48:09.079Z,96.2751
2023-04-16T01:49:09.949Z,96.1580
2023-04-16T01:50:10.700Z,96.2059
2023-04-16T01:51:11.658Z,96.2634
2023-04-16T01:52:12.331Z,96.2717
2023-04-16T01:53:13.012Z,96.2344
2023-04-16T01:54:13.686Z,96.2245
2023-04-16T01:55:14.404Z,96.1929
2023-04-16T01:56:15.106Z,96.2051
2023-04-16T01:57:15.776Z,96.2106
2023-04-16T01:58:16.439Z,96.2606
2023-04-16T01:59:17.358Z,96.2853
2023-04-16T02:00:18.043Z,96.1622
2023-04-16T02:01:18.809Z,96.1871
2023-04-16T02:02:19.575Z,96.2770
2023-04-16T02:03:20.419Z,96.4122
2023-04-16T02:04:21.144Z,96.4758
2023-04-16T06:48:58.668Z,96.4712
2023-04-16T06:49:52.696Z,97.1750
2023-04-16T06:50:53.493Z,97.1872
2023-04-16T06:51:54.167Z,97.2097
2023-04-16T06:52:54.856Z,97.2800
2023-04-16T06:53:55.659Z,97.3350
2023-04-16T06:54:56.407Z,97.3691
2023-04-16T06:55:57.227Z,97.3711
2023-04-16T06:56:58.150Z,97.3833
2023-04-16T06:57:58.771Z,97.3769
2023-04-16T06:58:59.452Z,97.3659
2023-04-16T07:00:00.243Z,97.4222
2023-04-16T07:01:00.995Z,97.5020
2023-04-16T07:02:01.873Z,97.5866
2023-04-16T07:03:03.130Z,97.6529
2023-04-16T07:04:04.041Z,97.7084
2023-04-16T07:05:04.852Z,97.7061
2023-04-16T07:06:05.532Z,97.6576
2023-04-16T07:07:06.238Z,97.6196
2023-04-16T07:08:06.951Z,97.5335
2023-04-16T07:09:07.788Z,97.4346
2023-04-16T07:10:08.555Z,97.3615
2023-04-16T07:11:09.262Z,97.2508
2023-04-16T07:12:09.933Z,97.2190
2023-04-16T07:13:10.864Z,97.2543
2023-04-16T07:14:11.746Z,97.3089
2023-04-16T07:15:12.418Z,97.3305
2023-04-16T07:16:13.469Z,97.3036
2023-04-16T07:17:14.145Z,97.2709
2023-04-16T07:18:14.848Z,97.1769
2023-04-16T07:19:15.547Z,97.1877
2023-04-16T07:20:16.262Z,97.2202
2023-04-16T07:21:17.478Z,97.3071
2023-04-16T07:22:18.114Z,97.3477
2023-04-16T07:23:18.820Z,97.2670
2023-04-16T07:24:19.570Z,97.2186
2023-04-16T07:25:20.252Z,97.2455
2023-04-16T07:26:20.929Z,97.2795
2023-04-16T07:27:21.751Z,97.2239
2023-04-16T07:28:22.410Z,97.0860
2023-04-16T07:29:23.290Z,96.9817
2023-04-16T07:30:24.098Z,96.8849
2023-04-16T07:31:24.835Z,96.7105
2023-04-16T07:32:25.626Z,96.7318
2023-04-16T07:33:26.559Z,96.7284
2023-04-16T07:34:27.293Z,96.7611
2023-04-16T07:35:27.982Z,96.7647
2023-04-16T07:36:28.646Z,96.8449
2023-04-16T07:37:29.369Z,96.9299
2023-04-16T07:38:30.026Z,97.0056
2023-04-16T07:39:30.717Z,97.0697
2023-04-16T07:40:31.427Z,96.9827
2023-04-16T07:41:32.367Z,96.8469
2023-04-16T07:42:33.035Z,96.7300
2023-04-16T07:47:58.135Z,96.6346
2023-04-16T07:48:51.853Z,96.3489
2023-04-16T07:49:52.769Z,95.8685
2023-04-16T07:50:53.455Z,95.6357
2023-04-16T07:51:54.381Z,95.7724
2023-04-16T07:52:55.242Z,95.6944
2023-04-16T07:53:56.000Z,95.7227
2023-04-16T07:54:56.859Z,95.7683
2023-04-16T07:55:57.732Z,95.7459
2023-04-16T07:56:58.478Z,95.8613
2023-04-16T07:57:59.689Z,96.0206
2023-04-16T07:59:07.833Z,96.1351
2023-04-16T08:00:03.738Z,96.1887
2023-04-16T08:01:04.420Z,96.0017
2023-04-16T08:02:05.186Z,96.0229
2023-04-16T08:03:06.011Z,96.1716
2023-04-16T08:04:07.087Z,95.9424
2023-04-16T08:05:07.865Z,95.7540
2023-04-16T08:06:08.568Z,95.8523
2023-04-16T08:07:09.241Z,95.8827
2023-04-16T08:08:11.457Z,95.9401
2023-04-16T08:09:12.294Z,95.8923
2023-04-16T08:10:13.043Z,96.0255
2023-04-16T08:11:13.848Z,95.9912
2023-04-16T08:12:14.546Z,95.9048
2023-04-16T08:18:09.950Z,95.9020
2023-04-16T08:19:10.970Z,95.8585
2023-04-16T08:20:15.060Z,95.3894
2023-04-16T08:21:15.328Z,95.3517
2023-04-16T08:22:16.305Z,95.4332
2023-04-16T08:23:17.208Z,95.6254
2023-04-16T08:24:17.918Z,95.5021
2023-04-16T08:25:18.605Z,95.4885
2023-04-16T08:26:19.561Z,95.4613
2023-04-16T08:27:20.502Z,95.1078
2023-04-16T08:28:21.230Z,95.2954
2023-04-16T08:29:22.388Z,95.2669
2023-04-16T08:30:23.064Z,95.1110
2023-04-16T08:31:23.836Z,95.1780
2023-04-16T08:32:24.637Z,95.2421
2023-04-16T08:33:25.636Z,95.2760
2023-04-16T08:34:26.368Z,95.1594
2023-04-16T08:35:27.112Z,95.4253
2023-04-16T08:36:27.853Z,95.5945
2023-04-16T08:37:28.542Z,95.5770
2023-04-16T08:38:29.505Z,95.4036
2023-04-16T08:39:30.183Z,95.3308
2023-04-16T08:40:30.950Z,95.3852
2023-04-16T08:41:31.648Z,95.5147
2023-04-16T08:42:32.394Z,95.3870
2023-04-16T08:43:33.093Z,95.3368
2023-04-16T08:44:33.808Z,95.5136
2023-04-16T08:45:34.565Z,95.6251
2023-04-16T08:46:35.311Z,95.4147
2023-04-16T08:47:36.019Z,94.6818
2023-04-16T08:48:36.727Z,94.2437
2023-04-16T08:49:37.434Z,93.9177
2023-04-16T08:50:38.406Z,93.8652
2023-04-16T08:51:39.225Z,93.9690
2023-04-16T08:52:39.912Z,94.1902
2023-04-16T08:53:40.738Z,94.5627
2023-04-16T08:54:41.496Z,94.3250
2023-04-16T08:55:42.289Z,94.1755
2023-04-16T11:00:38.375Z,94.5784
2023-04-16T11:26:09.643Z,94.6853
2023-04-16T11:41:49.429Z,93.7835
2023-04-16T11:42:20.271Z,94.1268
2023-04-16T11:43:21.076Z,94.6432
2023-04-16T11:44:21.949Z,94.9242
2023-04-16T11:45:22.931Z,94.7771
2023-04-16T11:46:27.841Z,95.0735
2023-04-16T11:47:25.994Z,95.2780
2023-04-16T11:48:26.917Z,95.3336
2023-04-16T11:49:27.715Z,95.5139
2023-04-16T11:50:28.533Z,95.6698
2023-04-16T11:51:29.368Z,95.6521
2023-04-16T11:52:30.239Z,95.5232
2023-04-16T11:53:31.052Z,95.2089
2023-04-16T11:54:31.819Z,95.3117
2023-04-16T11:55:32.623Z,95.4202
2023-04-16T11:56:33.469Z,95.6122
2023-04-16T11:57:35.782Z,95.4550
2023-04-16T11:58:36.821Z,95.0346
2023-04-16T11:59:36.751Z,95.2606
2023-04-16T12:00:38.351Z,95.3502
2023-04-16T12:01:40.777Z,95.2018
2023-04-16T12:02:43.403Z,94.8215
2023-04-16T12:03:46.066Z,94.7444
2023-04-16T12:42:25.168Z,94.4022
2023-04-16T13:08:26.719Z,93.2021
2023-04-16T13:08:57.038Z,92.7382
2023-04-16T13:09:57.797Z,93.5406
2023-04-16T13:10:58.601Z,94.1639
2023-04-16T13:11:59.401Z,94.7114
2023-04-16T13:13:00.258Z,94.9059
2023-04-16T13:14:01.086Z,94.6780
2023-04-16T13:15:02.193Z,94.1111
2023-04-16T13:16:02.973Z,93.3840
2023-04-16T13:17:03.769Z,93.2090
2023-04-16T13:18:04.642Z,93.0669
2023-04-16T13:19:05.440Z,93.2014
2023-04-16T13:20:06.205Z,92.7924
2023-04-16T13:21:07.003Z,93.3576
2023-04-16T13:22:08.589Z,93.5880
2023-04-16T13:23:09.367Z,93.6766
2023-04-16T13:24:10.123Z,93.7367
2023-04-16T13:25:10.873Z,94.4741
2023-04-16T13:26:11.597Z,94.0391
2023-04-16T13:27:12.364Z,94.0075
2023-04-16T13:28:13.106Z,94.2974
2023-04-16T13:29:13.853Z,94.5996
2023-04-16T13:30:14.587Z,94.2391
2023-04-16T13:31:15.388Z,93.2525
2023-04-16T13:32:16.113Z,93.7031
2023-04-16T13:33:16.978Z,93.9387
2023-04-16T13:34:17.719Z,94.1657
2023-04-16T13:35:18.445Z,93.6740
2023-04-16T13:36:19.220Z,92.5172
2023-04-16T13:37:19.951Z,92.9646
2023-04-16T13:38:20.719Z,93.1153
2023-04-16T13:39:21.617Z,92.5733
2023-04-16T13:40:22.295Z,92.2509
2023-04-16T13:41:23.066Z,92.4672
2023-04-16T13:42:24.142Z,92.6507
2023-04-16T13:43:24.909Z,92.9784
2023-04-16T13:44:25.656Z,92.8770
2023-04-16T13:45:26.414Z,92.9280
2023-04-16T13:46:27.147Z,92.2735
2023-04-16T13:47:27.889Z,91.8730
2023-04-16T13:48:28.688Z,91.7331
2023-04-16T13:49:29.743Z,91.7321
2023-04-16T13:50:30.555Z,92.5659
2023-04-16T13:51:32.132Z,92.4618
2023-04-16T13:52:32.929Z,92.8541
2023-04-16T13:53:33.745Z,93.0923
2023-04-16T13:54:34.737Z,93.1019
2023-04-16T13:55:35.605Z,92.4216
2023-04-16T13:56:36.405Z,92.7223
2023-04-16T13:57:37.198Z,93.1796
2023-04-16T13:58:38.570Z,93.5238
2023-04-16T13:59:40.573Z,92.7152
2023-04-16T14:00:41.413Z,92.8257
2023-04-16T14:01:42.218Z,93.1742
2023-04-16T14:02:43.176Z,93.1622
2023-04-16T14:03:44.364Z,92.8416
2023-04-16T14:04:45.555Z,92.7349
2023-04-16T14:05:47.133Z,92.9940
2023-04-16T14:06:48.508Z,93.2699
2023-04-16T14:07:49.567Z,93.2385
2023-04-16T14:08:50.383Z,93.6994
2023-04-16T14:09:51.156Z,94.0206
2023-04-16T14:10:52.638Z,94.1208
2023-04-16T14:11:54.656Z,93.7725
2023-04-16T14:12:55.391Z,93.9822
2023-04-16T14:13:56.234Z,93.5504
2023-04-16T14:14:57.009Z,93.8411
2023-04-16T14:15:57.869Z,93.8441
2023-04-16T14:16:59.669Z,93.8288
2023-04-16T14:18:00.660Z,93.7204
2023-04-16T14:19:01.571Z,93.4876
2023-04-16T14:20:03.025Z,93.3194
2023-04-16T14:21:03.736Z,93.6106
2023-04-16T14:22:04.576Z,93.7051
2023-04-16T14:23:05.305Z,93.6768
2023-04-16T14:24:06.063Z,93.9541
2023-04-16T14:25:06.815Z,93.9789
2023-04-16T14:26:07.641Z,94.7343
2023-04-16T14:27:08.507Z,94.6361
2023-04-16T14:28:09.298Z,94.2924
2023-04-16T14:29:10.741Z,94.4088
2023-04-16T14:30:11.638Z,94.4501
2023-04-16T14:31:12.520Z,94.5588
2023-04-16T14:32:13.775Z,94.5442
2023-04-16T14:33:14.540Z,94.6497
2023-04-16T14:34:15.553Z,94.7005
2023-04-16T14:35:16.300Z,94.9922
2023-04-16T14:36:17.233Z,94.8652
2023-04-16T14:37:17.983Z,94.7244
2023-04-16T14:38:18.850Z,94.9522
2023-04-16T14:39:19.647Z,94.8964
2023-04-16T14:40:20.615Z,94.8408
2023-04-16T14:41:21.466Z,95.0550
2023-04-16T14:42:22.257Z,94.6767
2023-04-16T14:43:23.554Z,94.6592
2023-04-16T14:44:25.087Z,94.6057
2023-04-16T14:45:25.886Z,94.3260
2023-04-16T14:46:26.655Z,94.4016
2023-04-16T14:47:27.413Z,94.7329
2023-04-16T14:48:28.235Z,94.6307
2023-04-16T14:49:29.079Z,94.3566
2023-04-16T14:50:30.117Z,93.8579
2023-04-16T14:51:30.919Z,93.7462
2023-04-16T14:52:31.774Z,93.8184
2023-04-16T14:53:32.694Z,94.3424
2023-04-16T14:54:33.544Z,94.2447
2023-04-16T14:55:34.383Z,93.9733
2023-04-16T14:56:35.405Z,94.2401
2023-04-16T14:57:36.239Z,94.3090
2023-04-16T14:58:38.647Z,94.0304
2023-04-16T14:59:40.689Z,94.0650
2023-04-16T15:00:41.561Z,94.5355
2023-04-16T15:01:42.397Z,93.9742
2023-04-16T15:02:43.371Z,93.7299
2023-04-16T15:03:45.732Z,94.3286
2023-04-16T15:04:47.842Z,94.3712
2023-04-16T15:05:49.702Z,93.9433
2023-04-16T15:06:55.515Z,93.7652
